Iran Virtual Airlines

A better place to fly together!



 METAR AND TAF INFORMATION
METAR FOR OICC
ADDS - METARS form results

(1628 UTC 30 November 2020)
Data provider http://aviationweather.gov/metar/data/
 
METAR text: OICC 301600Z 00000KT 9999 SCT040 08/03 Q1021 A3017
Conditions at: OICC (KERMANSHAH/BAKTA, IR) observed 1600 UTC 30 November 2020
Temperature: 8.0°C (46°F)
Dewpoint: 3.0°C (37°F) [RH = 71%]
Pressure (altimeter): 30.15 inches Hg (1021.0 mb)
Winds: calm
Visibility: 6 or more miles (10+ km)
Ceiling: at least 12,000 feet AGL
Clouds: scattered clouds at 4000 feet AGL
Weather: no significant weather observed at this time

METAR text: OICC 301530Z 00000KT 9999 SCT045 08/03 Q1021 A3017
Conditions at: OICC (KERMANSHAH/BAKTA, IR) observed 1530 UTC 30 November 2020
Temperature: 8.0°C (46°F)
Dewpoint: 3.0°C (37°F) [RH = 71%]
Pressure (altimeter): 30.15 inches Hg (1021.0 mb)
Winds: calm
Visibility: 6 or more miles (10+ km)
Ceiling: at least 12,000 feet AGL
Clouds: scattered clouds at 4500 feet AGL
Weather: no significant weather observed at this time

 AIRPORT MAP

 RUNWAY INFORMATION
Runway 11 Runway length 11213 ft Runway width 148 ft
Runway elevation 4307 ft Runway displaced threshold 1335 ft Runway heading 116
Runway 29 Runway length 11213 ft Runway width 148 ft
Runway elevation 4307 ft Runway displaced threshold 0 ft Runway heading 296

 AIRPORT FREQUENCIES
Type ATIS Name KERMANSHAH Frequency 126.8 MHZ
Type TWR Name KERMANSHAH Frequency 122.45 MHZ

 AIRPORT NEAR NAVIGATION AIDS
Type VOR-DME Name Kermanshah Frequency 114600 KHZ
Type NDB Name Kermanshah Frequency 382 KHZ
Type TACAN Name Kermanshah Frequency 115500 KHZ